Time;durP1;ratioP1;P1;durP2;ratioP2;P2;SDS_P1;SDS_P2;PMS_P1;PMS_P2;Temp;Humidity;BMP_temperature;BMP_pressure;BME280_temperature;BME280_humidity;BME280_pressure;Samples;Min_cycle;Max_cycle;Signal;HPM_P1;HPM_P2
2022/06/22 00:01:09;;;;;;;2.13;0.80;;;15.30;99.90;;;;;;5015631;28;20037;-87
2022/06/22 00:03:35;;;;;;;3.20;0.90;;;15.30;99.90;;;;;;5020774;28;20037;-87
2022/06/22 00:06:02;;;;;;;2.45;0.80;;;15.30;99.90;;;;;;5015601;28;20055;-87
2022/06/22 00:08:37;;;;;;;3.10;0.80;;;15.20;99.90;;;;;;4997936;28;20473;-87
2022/06/22 00:11:04;;;;;;;1.85;0.70;;;15.10;99.90;;;;;;5005392;28;20029;-87
2022/06/22 00:13:32;;;;;;;1.98;0.80;;;15.10;99.90;;;;;;5017903;28;20156;-87
2022/06/22 00:16:03;;;;;;;1.65;0.70;;;15.00;99.90;;;;;;5002596;28;20134;-87
2022/06/22 00:18:38;;;;;;;2.22;0.73;;;14.90;99.90;;;;;;5017885;28;20037;-89
2022/06/22 00:21:19;;;;;;;1.88;0.88;;;14.90;99.90;;;;;;5013709;28;20033;-87
2022/06/22 00:23:49;;;;;;;4.60;1.00;;;14.90;99.90;;;;;;5016126;28;20032;-87
2022/06/22 00:26:24;;;;;;;1.92;0.88;;;14.80;99.90;;;;;;5013483;28;20087;-88
2022/06/22 00:28:56;;;;;;;1.77;0.77;;;14.70;99.90;;;;;;5017238;28;20044;-87
2022/06/22 00:31:26;;;;;;;2.60;0.93;;;14.70;99.90;;;;;;5021516;28;20028;-87
2022/06/22 00:34:02;;;;;;;;;;;14.70;99.90;;;;;;5045514;28;20037;-86
2022/06/22 00:36:54;;;;;;;1.67;0.70;;;14.60;99.90;;;;;;5032391;28;19916;-88
2022/06/22 00:39:29;;;;;;;1.92;0.80;;;14.60;99.90;;;;;;4998068;28;20029;-87
2022/06/22 00:42:15;;;;;;;1.85;0.82;;;14.50;99.90;;;;;;5002808;28;20036;-87
2022/06/22 00:45:05;;;;;;;2.10;0.80;;;14.40;99.90;;;;;;5034829;28;20096;-87
2022/06/22 00:47:43;;;;;;;1.30;0.70;;;14.40;99.90;;;;;;5034498;28;20741;-87
2022/06/22 00:50:19;;;;;;;3.33;1.00;;;14.30;99.90;;;;;;5016093;28;20033;-86
2022/06/22 00:52:51;;;;;;;2.42;0.95;;;14.30;99.90;;;;;;5018692;28;20037;-87
2022/06/22 00:55:37;;;;;;;2.78;1.05;;;14.20;99.90;;;;;;5025630;28;20147;-87
2022/06/22 00:58:15;;;;;;;2.00;0.80;;;14.10;99.90;;;;;;5019308;28;20047;-87
2022/06/22 01:00:47;;;;;;;2.45;1.00;;;14.10;99.90;;;;;;5019994;28;20136;-87
2022/06/22 01:03:24;;;;;;;2.47;1.05;;;14.10;99.90;;;;;;5020143;28;20773;-86
2022/06/22 01:05:53;;;;;;;1.95;1.00;;;14.00;99.90;;;;;;5024334;28;20068;-87
2022/06/22 01:08:40;;;;;;;2.38;0.80;;;14.00;99.90;;;;;;5016225;28;20037;-87
2022/06/22 01:12:16;;;;;;;2.70;0.80;;;14.00;99.90;;;;;;5024678;28;20040;-87
2022/06/22 01:14:02;;;;;;;2.38;0.80;;;13.90;99.90;;;;;;5034345;28;20091;-86
2022/06/22 01:16:37;;;;;;;3.15;1.63;;;13.90;99.90;;;;;;5008882;28;20025;-87
2022/06/22 01:19:10;;;;;;;2.10;1.35;;;13.90;99.90;;;;;;5022905;28;20037;-87
2022/06/22 01:21:43;;;;;;;2.72;1.00;;;13.80;99.90;;;;;;5020206;28;20036;-86
2022/06/22 01:24:21;;;;;;;4.38;1.70;;;13.90;99.90;;;;;;5018359;28;20037;-87
2022/06/22 01:27:09;;;;;;;2.40;1.15;;;13.90;99.90;;;;;;5024848;28;20040;-86
2022/06/22 01:29:44;;;;;;;3.20;1.42;;;13.90;99.90;;;;;;5017572;28;20025;-84
2022/06/22 01:32:17;;;;;;;3.45;1.88;;;13.80;99.90;;;;;;5018224;28;20084;-88
2022/06/22 01:34:47;;;;;;;3.03;1.25;;;13.80;99.90;;;;;;5035403;28;20028;-86
2022/06/22 01:37:17;;;;;;;2.88;1.73;;;13.90;99.90;;;;;;5037691;28;20052;-86
2022/06/22 01:39:42;;;;;;;2.85;1.20;;;13.80;99.90;;;;;;5034942;28;20477;-86
2022/06/22 01:42:23;;;;;;;3.00;0.77;;;13.70;99.90;;;;;;5026054;28;20087;-86
2022/06/22 01:44:56;;;;;;;2.67;0.82;;;13.70;99.90;;;;;;5020577;28;20025;-86
2022/06/22 01:47:27;;;;;;;2.40;0.98;;;13.70;99.90;;;;;;5025379;28;20140;-86
2022/06/22 01:50:18;;;;;;;4.82;1.58;;;13.70;99.90;;;;;;5024272;28;20030;-85
2022/06/22 01:52:54;;;;;;;2.70;1.25;;;13.60;99.90;;;;;;5001944;28;20398;-86
2022/06/22 01:55:25;;;;;;;2.83;1.38;;;13.70;99.90;;;;;;5002637;28;20029;-85
2022/06/22 01:58:24;;;;;;;3.05;1.23;;;13.60;99.90;;;;;;5023320;28;20393;-85
2022/06/22 02:01:23;;;;;;;2.25;1.25;;;13.50;99.90;;;;;;5018945;28;20036;-87
2022/06/22 02:04:05;;;;;;;3.03;1.08;;;13.50;99.90;;;;;;5018997;28;20760;-86
2022/06/22 02:09:36;;;;;;;2.28;1.30;;;13.40;99.90;;;;;;5017689;28;20191;-88
2022/06/22 02:12:20;;;;;;;5.25;2.00;;;13.40;99.90;;;;;;5002527;28;20501;-87
2022/06/22 02:14:52;;;;;;;4.25;1.45;;;13.40;99.90;;;;;;5018825;28;20537;-86
2022/06/22 02:17:23;;;;;;;2.95;1.77;;;13.30;99.90;;;;;;5006774;28;20060;-87
2022/06/22 02:20:18;;;;;;;3.65;2.42;;;13.30;99.90;;;;;;5032572;28;20033;-87
2022/06/22 02:22:49;;;;;;;3.58;2.28;;;13.40;99.90;;;;;;5025833;28;20113;-87
2022/06/22 02:25:18;;;;;;;3.95;1.65;;;13.30;99.90;;;;;;5033172;28;20114;-87
2022/06/22 02:27:44;;;;;;;4.63;2.00;;;13.30;99.90;;;;;;5034034;28;20060;-88
2022/06/22 02:30:10;;;;;;;6.53;3.40;;;13.30;99.90;;;;;;5002214;28;20033;-88
2022/06/22 02:32:40;;;;;;;3.70;2.13;;;13.40;99.90;;;;;;5022999;28;20094;-86
2022/06/22 02:35:09;;;;;;;6.18;1.63;;;13.30;99.90;;;;;;5007923;28;20131;-87
2022/06/22 02:37:41;;;;;;;4.45;2.13;;;13.30;99.90;;;;;;5033903;28;20116;-87
2022/06/22 02:40:24;;;;;;;3.65;2.33;;;13.20;99.90;;;;;;5023442;28;20037;-87
2022/06/22 02:45:36;;;;;;;5.93;3.33;;;13.20;99.90;;;;;;5023122;28;20025;-86
2022/06/22 02:48:26;;;;;;;3.58;2.30;;;13.10;99.90;;;;;;5005927;28;20425;-87
2022/06/22 02:51:01;;;;;;;6.28;4.10;;;13.10;99.90;;;;;;5017215;28;20021;-87
2022/06/22 02:53:34;;;;;;;4.35;3.38;;;13.10;99.90;;;;;;5022671;28;20033;-87
2022/06/22 02:56:03;;;;;;;7.53;3.40;;;13.10;99.90;;;;;;5010658;28;20033;-87
2022/06/22 02:58:33;;;;;;;5.80;3.03;;;13.00;99.90;;;;;;5022841;28;20470;-87
2022/06/22 03:01:04;;;;;;;4.70;2.90;;;12.90;99.90;;;;;;5013467;28;20025;-86
2022/06/22 03:03:33;;;;;;;5.03;2.88;;;12.90;99.90;;;;;;5006463;28;20051;-86
2022/06/22 03:05:59;;;;;;;4.28;2.90;;;12.90;99.90;;;;;;5031548;28;20053;-87
2022/06/22 03:08:25;;;;;;;4.07;2.95;;;12.90;99.90;;;;;;5032071;28;20031;-86
2022/06/22 03:10:55;;;;;;;2.92;1.40;;;12.80;99.90;;;;;;5033279;28;20033;-87
2022/06/22 03:13:24;;;;;;;;;;;12.90;99.90;;;;;;5020693;28;20052;-87
2022/06/22 03:15:51;;;;;;;2.67;1.30;;;12.80;99.90;;;;;;5021125;28;19912;-87
2022/06/22 03:18:24;;;;;;;3.45;1.80;;;12.80;99.90;;;;;;5004585;28;20033;-87
2022/06/22 03:21:03;;;;;;;5.38;3.33;;;12.80;99.90;;;;;;5000475;28;20179;-87
2022/06/22 03:23:50;;;;;;;5.70;3.17;;;12.70;99.90;;;;;;5032359;28;20033;-86
2022/06/22 03:26:18;;;;;;;4.15;2.85;;;12.80;99.90;;;;;;5011339;28;20558;-88
2022/06/22 03:29:08;;;;;;;3.58;2.78;;;12.70;99.90;;;;;;5023227;28;20037;-87
2022/06/22 03:31:56;;;;;;;4.43;2.90;;;12.70;99.90;;;;;;5021864;28;20036;-88
2022/06/22 03:34:34;;;;;;;2.72;1.85;;;12.70;99.90;;;;;;5031295;28;20013;-87
2022/06/22 03:37:09;;;;;;;3.42;2.25;;;12.70;99.90;;;;;;5025964;28;20096;-88
2022/06/22 03:39:37;;;;;;;3.42;2.95;;;12.60;99.90;;;;;;5031074;28;20477;-88
2022/06/22 03:42:13;;;;;;;4.45;2.13;;;12.60;99.90;;;;;;5016217;28;20037;-88
2022/06/22 03:44:46;;;;;;;3.05;1.83;;;12.60;99.90;;;;;;5003030;28;20031;-87
2022/06/22 03:47:24;;;;;;;5.78;2.80;;;12.60;99.90;;;;;;5010566;28;20029;-87
2022/06/22 03:49:58;;;;;;;4.95;2.90;;;12.60;99.90;;;;;;5018052;28;20531;-87
2022/06/22 03:52:49;;;;;;;4.53;3.30;;;12.60;99.90;;;;;;5020234;28;20052;-87
2022/06/22 03:55:27;;;;;;;3.08;2.72;;;12.60;99.90;;;;;;5027134;28;20049;-87
2022/06/22 03:57:55;;;;;;;3.40;1.95;;;12.60;99.90;;;;;;5027519;28;20036;-87
2022/06/22 04:00:22;;;;;;;6.28;2.15;;;12.60;99.90;;;;;;5015836;28;20071;-87
2022/06/22 04:02:49;;;;;;;3.67;2.67;;;12.60;99.90;;;;;;5017882;28;20036;-87
2022/06/22 04:05:18;;;;;;;2.92;2.28;;;12.60;99.90;;;;;;5032806;28;20029;-87
2022/06/22 04:07:44;;;;;;;3.53;1.83;;;12.60;99.90;;;;;;5001155;28;20045;-87
2022/06/22 04:10:33;;;;;;;3.10;2.58;;;12.70;99.90;;;;;;5005318;28;20021;-87
2022/06/22 04:13:02;;;;;;;3.63;2.50;;;12.70;99.90;;;;;;5013696;28;20053;-87
2022/06/22 04:15:37;;;;;;;2.97;2.30;;;12.70;99.90;;;;;;5002611;28;20124;-87
2022/06/22 04:18:12;;;;;;;4.38;3.22;;;12.70;99.90;;;;;;5021480;28;20043;-87
2022/06/22 04:21:13;;;;;;;4.50;3.08;;;12.80;99.90;;;;;;5029812;28;20033;-87
2022/06/22 04:23:56;;;;;;;2.92;2.33;;;12.80;99.90;;;;;;5012005;28;20037;-87
2022/06/22 04:26:29;;;;;;;2.70;2.13;;;12.80;99.90;;;;;;5031120;28;20187;-87
2022/06/22 04:29:12;;;;;;;3.13;2.38;;;12.90;99.90;;;;;;5018715;28;20033;-87
2022/06/22 04:31:43;;;;;;;5.55;4.80;;;13.00;99.90;;;;;;5008867;28;20024;-87
2022/06/22 04:34:17;;;;;;;4.63;3.65;;;13.10;99.90;;;;;;5004387;28;20206;-87
2022/06/22 04:36:54;;;;;;;5.25;3.97;;;13.20;99.90;;;;;;5000682;28;20040;-88
2022/06/22 04:39:30;;;;;;;8.88;5.07;;;13.20;99.90;;;;;;5004644;28;20125;-87
2022/06/22 04:42:00;;;;;;;5.38;4.47;;;13.30;99.90;;;;;;5021013;28;20125;-87
2022/06/22 04:44:30;;;;;;;4.78;3.35;;;13.50;99.90;;;;;;5032054;28;20041;-88
2022/06/22 04:47:12;;;;;;;4.70;3.70;;;13.60;99.90;;;;;;5030886;28;20041;-87
2022/06/22 04:49:47;;;;;;;4.72;4.30;;;13.70;99.90;;;;;;5021675;28;20029;-87
2022/06/22 04:52:26;;;;;;;5.85;5.10;;;13.80;99.90;;;;;;5018722;28;20045;-87
2022/06/22 04:54:55;;;;;;;5.82;3.80;;;13.90;99.90;;;;;;5031998;28;20034;-87
2022/06/22 04:57:26;;;;;;;4.88;3.88;;;14.10;99.90;;;;;;5030785;28;20105;-88
2022/06/22 04:59:53;;;;;;;7.28;6.63;;;14.20;99.90;;;;;;5016735;28;20064;-86
2022/06/22 05:02:24;;;;;;;7.50;6.20;;;14.20;99.90;;;;;;5014752;28;20039;-86
2022/06/22 05:04:52;;;;;;;8.73;7.30;;;14.20;99.90;;;;;;5028680;28;20034;-87
2022/06/22 05:07:48;;;;;;;5.43;4.03;;;14.30;99.90;;;;;;5016504;28;22074;-85
2022/06/22 05:10:28;;;;;;;6.05;4.50;;;14.50;99.90;;;;;;5013285;28;20122;-87
2022/06/22 05:13:02;;;;;;;;;;;14.60;99.90;;;;;;5016731;28;20456;-86
2022/06/22 05:15:39;;;;;;;6.32;3.47;;;14.80;99.90;;;;;;5014631;28;19966;-87
2022/06/22 05:18:17;;;;;;;7.15;5.82;;;14.80;99.90;;;;;;5013570;28;20021;-87
2022/06/22 05:21:01;;;;;;;5.25;3.95;;;14.90;99.90;;;;;;4999792;28;20059;-86
2022/06/22 05:23:29;;;;;;;3.28;1.70;;;15.30;99.90;;;;;;5027315;28;20029;-86
2022/06/22 05:25:57;;;;;;;4.55;3.70;;;15.50;99.90;;;;;;5017654;28;20029;-86
2022/06/22 05:28:35;;;;;;;4.10;3.00;;;15.60;99.90;;;;;;5024522;28;20039;-87
2022/06/22 05:31:21;;;;;;;3.33;2.90;;;15.70;99.90;;;;;;5032748;28;20602;-86
2022/06/22 05:33:50;;;;;;;3.80;3.00;;;15.80;99.90;;;;;;5001441;28;20060;-87
2022/06/22 05:36:24;;;;;;;5.45;3.92;;;15.90;99.90;;;;;;5023448;28;20056;-86
2022/06/22 05:38:53;;;;;;;3.75;2.83;;;16.10;99.90;;;;;;5018595;28;20040;-85
2022/06/22 05:41:29;;;;;;;3.10;2.72;;;16.20;99.90;;;;;;5018172;28;20059;-86
2022/06/22 05:43:57;;;;;;;4.03;2.67;;;16.40;99.90;;;;;;5020542;28;20032;-86
2022/06/22 05:46:23;;;;;;;3.88;2.47;;;16.60;99.90;;;;;;5014767;28;20446;-88
2022/06/22 05:48:50;;;;;;;4.40;3.53;;;16.80;99.90;;;;;;5022973;28;20125;-88
2022/06/22 05:51:41;;;;;;;4.22;2.08;;;16.80;99.90;;;;;;5033270;28;20033;-86
2022/06/22 05:54:17;;;;;;;3.88;2.80;;;16.90;99.90;;;;;;5034464;28;20086;-87
2022/06/22 05:56:52;;;;;;;2.45;1.83;;;17.10;99.90;;;;;;5024136;28;21997;-88
2022/06/22 05:59:31;;;;;;;4.45;3.28;;;17.40;99.90;;;;;;5022318;28;20098;-88
2022/06/22 06:02:16;;;;;;;4.72;2.83;;;17.30;99.90;;;;;;5003513;28;20068;-85
2022/06/22 06:04:48;;;;;;;5.93;3.65;;;17.30;99.90;;;;;;5004223;28;20051;-87
2022/06/22 06:07:35;;;;;;;4.68;2.90;;;17.30;99.90;;;;;;5001080;28;20666;-87
2022/06/22 06:10:05;;;;;;;3.92;2.92;;;17.50;99.90;;;;;;5019572;28;20371;-85
2022/06/22 06:12:36;;;;;;;4.57;3.00;;;17.90;99.90;;;;;;4998020;28;20068;-85
2022/06/22 06:15:04;;;;;;;2.40;1.42;;;18.00;99.90;;;;;;4997143;28;20128;-85
2022/06/22 06:17:38;;;;;;;5.00;2.20;;;17.90;99.90;;;;;;5023339;28;20030;-87
2022/06/22 06:20:07;;;;;;;3.30;2.20;;;18.00;99.90;;;;;;5015710;28;20033;-86
2022/06/22 06:22:36;;;;;;;2.17;1.37;;;18.40;99.90;;;;;;5020448;28;20033;-86
2022/06/22 06:28:02;;;;;;;2.42;1.30;;;18.60;99.90;;;;;;5027884;28;20056;-86
2022/06/22 06:30:43;;;;;;;3.20;2.17;;;19.00;99.90;;;;;;5014521;28;20025;-85
2022/06/22 06:33:37;;;;;;;3.47;1.98;;;19.10;99.90;;;;;;4997134;28;20477;-86
2022/06/22 06:36:17;;;;;;;2.92;1.40;;;19.30;99.90;;;;;;4996952;28;20045;-86
2022/06/22 06:39:04;;;;;;;3.78;1.58;;;19.00;99.90;;;;;;5027867;28;20045;-85
2022/06/22 06:41:35;;;;;;;3.63;2.08;;;19.20;99.90;;;;;;4996084;28;20030;-86
2022/06/22 06:44:16;;;;;;;1.90;1.00;;;19.00;99.90;;;;;;5019755;28;20160;-87
2022/06/22 06:47:00;;;;;;;2.42;1.38;;;19.60;99.90;;;;;;5010118;28;20445;-85
2022/06/22 06:49:32;;;;;;;2.65;1.30;;;19.90;99.90;;;;;;5017734;28;20033;-84
2022/06/22 06:52:01;;;;;;;3.45;1.27;;;20.20;99.90;;;;;;5016064;28;20502;-84
2022/06/22 06:54:41;;;;;;;2.72;1.20;;;20.20;99.90;;;;;;5017690;28;20449;-86
2022/06/22 06:57:09;;;;;;;;;;;20.40;99.90;;;;;;5009405;28;20112;-86
2022/06/22 06:59:36;;;;;;;2.63;1.00;;;20.30;99.90;;;;;;5013322;28;19968;-85
2022/06/22 07:02:36;;;;;;;2.40;1.30;;;20.50;99.90;;;;;;4993842;28;20107;-87
2022/06/22 07:05:06;;;;;;;4.00;2.40;;;20.60;99.90;;;;;;5002027;28;20041;-85
2022/06/22 07:08:06;;;;;;;2.80;1.35;;;20.00;99.90;;;;;;5000957;28;20112;-83
2022/06/22 07:10:46;;;;;;;3.47;1.13;;;20.50;99.90;;;;;;5000252;28;20650;-85
2022/06/22 07:13:17;;;;;;;2.42;0.85;;;21.00;99.90;;;;;;4983247;28;20065;-84
2022/06/22 07:15:47;;;;;;;2.42;1.23;;;21.30;99.90;;;;;;5006448;28;20396;-84
2022/06/22 07:18:22;;;;;;;1.67;0.47;;;21.10;99.90;;;;;;5024372;28;20124;-86
2022/06/22 07:20:54;;;;;;;2.83;1.33;;;21.10;99.90;;;;;;4996687;28;20026;-86
2022/06/22 07:23:39;;;;;;;3.33;1.20;;;20.70;99.90;;;;;;5000229;28;20060;-86
2022/06/22 07:26:16;;;;;;;1.88;0.88;;;21.20;99.90;;;;;;4988909;28;20032;-86
2022/06/22 07:28:49;;;;;;;2.47;0.70;;;21.30;99.90;;;;;;5016994;28;20482;-85
2022/06/22 07:31:26;;;;;;;5.65;1.20;;;21.80;99.90;;;;;;4996239;28;20033;-87
2022/06/22 07:34:06;;;;;;;3.17;0.75;;;21.10;99.90;;;;;;4974236;28;20229;-84
2022/06/22 07:36:42;;;;;;;;;;;21.80;99.90;;;;;;4980241;28;20041;-85
2022/06/22 07:39:18;;;;;;;3.15;0.52;;;21.90;99.90;;;;;;5025439;28;20531;-86
2022/06/22 07:41:44;;;;;;;2.42;0.73;;;22.30;99.90;;;;;;4995191;28;20042;-86
2022/06/22 07:44:18;;;;;;;1.80;0.80;;;22.10;99.90;;;;;;5001550;28;20030;-86
2022/06/22 07:47:00;;;;;;;2.33;0.70;;;21.90;99.90;;;;;;5008866;28;20476;-87
2022/06/22 07:49:34;;;;;;;1.33;0.50;;;22.00;99.90;;;;;;4996584;28;20034;-88
2022/06/22 07:52:02;;;;;;;1.88;0.60;;;22.30;99.90;;;;;;5010882;28;20030;-85
2022/06/22 07:54:32;;;;;;;3.42;0.90;;;22.00;99.90;;;;;;4983703;28;20602;-86
2022/06/22 07:57:22;;;;;;;2.45;0.75;;;21.60;99.90;;;;;;4990797;28;20053;-86
2022/06/22 07:59:56;;;;;;;2.42;0.60;;;21.70;99.90;;;;;;4991846;28;20505;-86
2022/06/22 08:02:44;;;;;;;1.30;0.40;;;22.10;99.90;;;;;;4992373;28;20025;-86
2022/06/22 08:05:18;;;;;;;3.17;0.70;;;22.30;99.90;;;;;;4977131;28;20061;-86
2022/06/22 08:08:04;;;;;;;1.63;0.40;;;21.40;99.90;;;;;;4996986;28;20050;-87
2022/06/22 08:10:43;;;;;;;1.63;0.43;;;21.80;99.90;;;;;;4992107;28;20048;-86
2022/06/22 08:13:20;;;;;;;2.85;0.50;;;21.90;99.90;;;;;;5008039;28;20058;-88
2022/06/22 08:15:52;;;;;;;1.52;0.40;;;22.40;99.90;;;;;;5008097;28;20110;-87
2022/06/22 08:18:18;;;;;;;1.10;0.30;;;22.60;99.90;;;;;;5008690;28;20600;-85
2022/06/22 08:20:46;;;;;;;0.90;0.35;;;23.20;99.90;;;;;;4997037;28;20038;-86
2022/06/22 08:23:20;;;;;;;2.58;0.50;;;23.00;99.90;;;;;;4995838;28;20034;-87
2022/06/22 08:25:48;;;;;;;7.75;0.90;;;22.40;99.90;;;;;;4993064;28;20052;-87
2022/06/22 08:28:17;;;;;;;3.85;0.55;;;21.70;99.90;;;;;;5007266;28;20033;-86
2022/06/22 08:30:44;;;;;;;1.58;0.32;;;22.10;99.90;;;;;;4983543;28;20056;-87
2022/06/22 08:33:16;;;;;;;1.10;0.40;;;22.50;99.90;;;;;;5006231;28;20234;-87
2022/06/22 08:36:10;;;;;;;1.13;0.28;;;22.80;99.90;;;;;;4999176;28;20026;-87
2022/06/22 08:39:05;;;;;;;1.33;0.40;;;23.10;99.90;;;;;;4981718;28;20422;-87
2022/06/22 08:41:36;;;;;;;1.80;0.30;;;22.70;99.90;;;;;;5015716;28;20030;-84
2022/06/22 08:44:14;;;;;;;1.17;0.28;;;23.30;99.90;;;;;;4994364;28;20530;-86
2022/06/22 08:46:58;;;;;;;1.52;0.20;;;23.70;99.90;;;;;;5000663;28;20033;-87
2022/06/22 08:49:44;;;;;;;1.65;0.20;;;24.10;99.90;;;;;;5000916;28;20173;-86
2022/06/22 08:52:35;;;;;;;1.55;0.40;;;23.40;99.90;;;;;;5015161;28;20099;-88
2022/06/22 08:55:12;;;;;;;2.17;0.30;;;22.80;99.90;;;;;;5011036;28;20034;-84
2022/06/22 08:57:43;;;;;;;2.42;0.30;;;23.60;99.90;;;;;;4976333;28;20172;-87
2022/06/22 09:00:27;;;;;;;1.38;0.20;;;24.10;99.90;;;;;;5001179;28;20045;-86
2022/06/22 09:03:18;;;;;;;0.70;0.20;;;24.60;99.90;;;;;;4987645;28;20027;-86
2022/06/22 09:06:08;;;;;;;0.75;0.20;;;25.00;99.90;;;;;;5003299;28;20029;-87
2022/06/22 09:08:57;;;;;;;0.60;0.10;;;25.20;99.90;;;;;;5027231;28;20124;-87
2022/06/22 09:11:23;;;;;;;1.20;0.20;;;25.30;99.90;;;;;;5012187;28;20030;-88
2022/06/22 09:14:13;;;;;;;1.08;0.30;;;25.60;99.90;;;;;;4997263;28;20076;-87
2022/06/22 09:17:03;;;;;;;1.70;0.20;;;24.60;99.90;;;;;;5043243;28;20037;-87
2022/06/22 09:19:57;;;;;;;1.75;0.30;;;24.20;99.90;;;;;;4999527;28;20092;-88
2022/06/22 09:22:34;;;;;;;3.65;0.38;;;23.60;99.90;;;;;;5009596;28;20025;-88
2022/06/22 09:25:26;;;;;;;1.77;0.30;;;23.40;99.90;;;;;;5019205;28;20084;-87
2022/06/22 09:28:02;;;;;;;0.95;0.20;;;23.40;99.90;;;;;;4991858;28;20033;-88
2022/06/22 09:30:55;;;;;;;0.77;0.30;;;24.20;99.90;;;;;;4998745;28;20413;-88
2022/06/22 09:33:57;;;;;;;2.22;0.28;;;24.00;99.90;;;;;;5002348;28;20038;-88
2022/06/22 09:36:41;;;;;;;1.40;0.20;;;24.10;99.90;;;;;;5002543;28;20029;-87
2022/06/22 09:39:24;;;;;;;0.68;0.20;;;24.60;99.90;;;;;;4993351;28;20309;-86
2022/06/22 09:41:53;;;;;;;2.45;0.28;;;25.10;99.90;;;;;;5014229;28;20473;-88
2022/06/22 09:44:47;;;;;;;0.90;0.20;;;24.70;99.90;;;;;;5017019;28;20049;-86
2022/06/22 09:47:34;;;;;;;2.47;0.30;;;25.10;99.90;;;;;;5010914;28;20026;-86
2022/06/22 09:50:25;;;;;;;2.45;0.20;;;24.70;99.90;;;;;;5014490;28;20041;-87
2022/06/22 09:53:15;;;;;;;1.02;0.30;;;24.20;99.90;;;;;;4995927;28;20502;-87
2022/06/22 09:56:23;;;;;;;2.97;0.25;;;24.20;99.90;;;;;;4987314;28;20051;-88
2022/06/22 09:59:15;;;;;;;0.85;0.20;;;24.20;99.90;;;;;;4931392;29;20043;-88
2022/06/22 10:02:23;;;;;;;1.73;0.30;;;24.70;99.90;;;;;;4905874;29;20052;-88
2022/06/22 10:05:06;;;;;;;1.40;0.30;;;24.80;99.90;;;;;;4909776;29;20040;-87
2022/06/22 10:07:52;;;;;;;0.40;0.10;;;25.10;99.90;;;;;;4902172;29;20194;-85
2022/06/22 10:10:18;;;;;;;0.77;0.10;;;26.10;99.90;;;;;;4912099;29;20055;-87
2022/06/22 10:13:11;;;;;;;0.38;0.10;;;25.60;99.90;;;;;;4923188;29;20043;-86
2022/06/22 10:16:20;;;;;;;2.35;0.20;;;26.00;99.90;;;;;;4899984;29;20520;-89
2022/06/22 10:18:48;;;;;;;;;;;25.10;99.90;;;;;;4867538;29;20706;-88
2022/06/22 10:21:17;;;;;;;1.48;0.20;;;24.80;99.90;;;;;;4892657;29;20444;-88
2022/06/22 10:23:58;;;;;;;0.95;0.15;;;25.70;99.90;;;;;;4877474;29;20108;-86
2022/06/22 10:26:35;;;;;;;0.95;0.10;;;25.90;99.90;;;;;;4879839;29;20052;-87
2022/06/22 10:29:22;;;;;;;0.60;0.10;;;26.10;99.90;;;;;;4877389;29;20052;-86
2022/06/22 10:32:10;;;;;;;0.38;0.10;;;25.90;99.90;;;;;;4876690;29;20040;-88
2022/06/22 10:34:57;;;;;;;1.15;0.10;;;26.40;99.90;;;;;;4868178;29;20143;-86
2022/06/22 10:37:35;;;;;;;0.10;0.00;;;26.20;99.90;;;;;;4953473;28;20146;-88
2022/06/22 10:46:33;;;;;;;1.88;0.10;;;25.30;99.90;;;;;;4980875;28;20041;-86
2022/06/22 10:49:36;;;;;;;0.30;0.08;;;25.50;99.90;;;;;;4979001;28;20538;-88
2022/06/22 10:52:16;;;;;;;1.02;0.10;;;25.60;99.90;;;;;;4968809;28;20053;-87
2022/06/22 10:54:44;;;;;;;0.70;0.20;;;25.50;99.90;;;;;;5003083;28;20172;-87
2022/06/22 10:57:33;;;;;;;0.70;0.10;;;25.90;99.90;;;;;;5026952;28;20109;-86
2022/06/22 11:00:09;;;;;;;1.52;0.10;;;26.60;99.90;;;;;;4975771;28;20049;-88
2022/06/22 11:03:15;;;;;;;0.80;0.13;;;26.20;99.90;;;;;;5003103;28;20061;-88
2022/06/22 11:06:09;;;;;;;1.13;0.20;;;26.20;99.90;;;;;;4990566;28;20623;-90
2022/06/22 11:08:42;;;;;;;0.85;0.10;;;25.50;99.90;;;;;;5000100;28;20120;-90
2022/06/22 11:11:50;;;;;;;1.05;0.20;;;26.30;99.90;;;;;;5044441;28;20060;-91
2022/06/22 11:14:57;;;;;;;2.53;0.20;;;26.50;99.90;;;;;;5003430;28;20037;-90
2022/06/22 11:17:45;;;;;;;0.55;0.15;;;26.00;99.90;;;;;;5003491;28;21762;-88
2022/06/22 11:20:22;;;;;;;1.23;0.10;;;27.10;99.90;;;;;;5006059;28;20025;-89
2022/06/22 11:23:15;;;;;;;0.32;0.10;;;27.10;99.90;;;;;;5024870;28;20492;-90
2022/06/22 11:32:33;;;;;;;0.85;0.10;;;26.80;99.90;;;;;;5012242;28;20033;-89
2022/06/22 11:35:24;;;;;;;1.80;0.10;;;27.40;99.90;;;;;;5000417;28;20025;-90
2022/06/22 11:38:18;;;;;;;0.40;0.10;;;26.40;99.90;;;;;;5016725;28;20192;-88
2022/06/22 11:41:12;;;;;;;0.52;0.10;;;26.70;99.90;;;;;;5033499;28;20029;-90
2022/06/22 11:44:05;;;;;;;0.47;0.10;;;27.50;99.90;;;;;;4997224;28;20029;-89
2022/06/22 11:46:45;;;;;;;0.57;0.10;;;27.60;99.90;;;;;;5000156;28;20040;-89
2022/06/22 11:49:25;;;;;;;0.57;0.10;;;27.60;99.20;;;;;;5014750;28;20536;-90
2022/06/22 11:52:16;;;;;;;0.88;0.08;;;27.30;99.10;;;;;;5007312;28;20033;-90
2022/06/22 11:55:17;;;;;;;0.95;0.20;;;27.50;99.40;;;;;;5015377;28;20033;-89
2022/06/22 11:58:01;;;;;;;0.20;0.10;;;26.30;99.90;;;;;;5001907;28;20573;-90
2022/06/22 12:00:53;;;;;;;0.55;0.10;;;27.10;99.90;;;;;;5008844;28;20030;-91
2022/06/22 12:03:57;;;;;;;1.10;0.10;;;26.90;99.90;;;;;;5014731;28;20045;-90
2022/06/22 12:07:01;;;;;;;1.50;0.10;;;26.80;99.90;;;;;;4992103;28;20963;-90
2022/06/22 12:09:55;;;;;;;0.75;0.10;;;27.60;99.90;;;;;;4988852;28;20029;-89
2022/06/22 12:13:01;;;;;;;0.57;0.10;;;27.90;99.90;;;;;;5019216;28;20104;-89
2022/06/22 12:15:45;;;;;;;0.30;0.08;;;27.80;99.90;;;;;;5012304;28;20063;-90
2022/06/22 12:18:26;;;;;;;0.85;0.10;;;27.90;99.10;;;;;;5024855;28;20128;-88
2022/06/22 12:21:25;;;;;;;0.32;0.00;;;28.00;98.70;;;;;;5012899;28;20075;-90
2022/06/22 12:24:15;;;;;;;0.22;0.00;;;27.40;98.20;;;;;;5003052;28;20128;-88
2022/06/22 12:27:17;;;;;;;0.43;0.10;;;27.60;99.10;;;;;;5026346;28;20034;-90
2022/06/22 12:29:49;;;;;;;1.20;0.10;;;27.90;99.10;;;;;;4992460;28;20033;-91
2022/06/22 12:32:31;;;;;;;0.95;0.00;;;28.00;98.90;;;;;;5011837;28;20021;-91
2022/06/22 12:35:17;;;;;;;0.47;0.10;;;27.50;99.00;;;;;;5030311;28;20046;-90
2022/06/22 12:37:48;;;;;;;0.30;0.00;;;27.50;98.60;;;;;;5017931;28;20044;-90
2022/06/22 12:40:28;;;;;;;1.13;0.00;;;28.10;98.80;;;;;;5031948;28;20404;-89
2022/06/22 12:43:16;;;;;;;2.30;0.10;;;27.70;98.70;;;;;;5008027;28;20448;-91
2022/06/22 12:45:49;;;;;;;0.57;0.10;;;27.20;98.80;;;;;;5031404;28;20025;-90
2022/06/22 12:48:45;;;;;;;0.95;0.10;;;27.70;99.30;;;;;;5018197;28;20128;-87
2022/06/22 12:51:26;;;;;;;0.20;0.08;;;27.80;98.30;;;;;;5010290;28;20108;-89
2022/06/22 12:54:19;;;;;;;1.17;0.10;;;28.20;98.10;;;;;;5031115;28;20029;-89
2022/06/22 12:57:01;;;;;;;0.52;0.10;;;28.00;97.90;;;;;;5022838;28;20037;-90
2022/06/22 12:59:44;;;;;;;2.22;0.10;;;27.90;98.70;;;;;;5018271;28;20042;-90
2022/06/22 13:02:17;;;;;;;0.88;0.10;;;27.00;98.10;;;;;;5022730;28;20508;-88
2022/06/22 13:04:45;;;;;;;1.48;0.15;;;27.20;99.40;;;;;;5021628;28;20477;-91
2022/06/22 13:07:14;;;;;;;0.98;0.10;;;27.10;99.20;;;;;;5009041;28;20092;-89
2022/06/22 13:09:41;;;;;;;5.15;0.32;;;27.60;98.20;;;;;;5022009;28;20033;-89
2022/06/22 13:12:36;;;;;;;0.85;0.10;;;27.60;98.00;;;;;;5032077;28;20037;-89
2022/06/22 13:15:23;;;;;;;0.40;0.10;;;27.50;97.90;;;;;;5006665;28;20032;-90
2022/06/22 13:18:04;;;;;;;0.35;0.10;;;27.80;97.90;;;;;;5031411;28;20473;-90
2022/06/22 13:20:29;;;;;;;0.35;0.05;;;27.40;98.50;;;;;;5012040;28;20033;-90
2022/06/22 13:23:14;;;;;;;0.25;0.00;;;28.10;98.40;;;;;;5038434;28;20048;-89
2022/06/22 13:25:51;;;;;;;0.60;0.00;;;28.40;97.70;;;;;;5031025;28;20064;-87
2022/06/22 13:28:22;;;;;;;0.20;0.00;;;28.60;97.30;;;;;;5030735;28;20141;-89
2022/06/22 13:30:56;;;;;;;1.30;0.10;;;28.20;97.10;;;;;;5021679;28;20040;-90
2022/06/22 13:33:41;;;;;;;1.40;0.10;;;27.80;96.70;;;;;;5021881;28;20037;-89
2022/06/22 13:36:09;;;;;;;1.27;0.10;;;27.60;97.80;;;;;;5013735;28;20116;-88
2022/06/22 13:38:53;;;;;;;1.60;0.10;;;27.90;96.80;;;;;;5001921;28;20597;-89
2022/06/22 13:41:44;;;;;;;0.85;0.10;;;27.80;97.50;;;;;;5036493;28;20165;-89
2022/06/22 13:44:20;;;;;;;0.60;0.00;;;27.80;96.80;;;;;;5031893;28;20045;-90
2022/06/22 13:47:07;;;;;;;1.55;0.10;;;27.90;97.30;;;;;;5004439;28;20041;-91
2022/06/22 13:50:28;;;;;;;0.85;0.10;;;27.70;95.70;;;;;;5030601;28;20065;-90
2022/06/22 13:52:56;;;;;;;0.60;0.00;;;27.80;96.20;;;;;;5005898;28;20033;-91
2022/06/22 13:55:34;;;;;;;0.20;0.00;;;27.60;95.50;;;;;;5032091;28;20040;-90
2022/06/22 13:58:09;;;;;;;0.50;0.10;;;27.70;95.00;;;;;;5021022;28;20441;-90
2022/06/22 14:01:01;;;;;;;0.30;0.00;;;28.00;96.20;;;;;;5022425;28;20505;-90
2022/06/22 14:03:37;;;;;;;0.28;0.00;;;27.60;96.40;;;;;;5007360;28;20053;-89
2022/06/22 14:06:31;;;;;;;0.25;0.00;;;27.80;96.70;;;;;;5006408;28;20068;-90
2022/06/22 14:09:13;;;;;;;0.40;0.10;;;27.60;95.90;;;;;;4986046;28;20041;-91
2022/06/22 14:12:06;;;;;;;0.10;0.00;;;27.80;96.50;;;;;;5006032;28;20041;-90